Time;durP1;ratioP1;P1;durP2;ratioP2;P2;SDS_P1;SDS_P2;PMS_P1;PMS_P2;Temp;Humidity;BMP_temperature;BMP_pressure;BME280_temperature;BME280_humidity;BME280_pressure;Samples;Min_cycle;Max_cycle;Signal;HPM_P1;HPM_P2
2023/07/01 00:00:36;;;;;;;11.65;5.25;;;16.00;99.90;;;;;;4999178;28;20043;-73
2023/07/01 00:03:03;;;;;;;10.57;6.10;;;15.90;99.90;;;;;;4933551;28;20048;-73
2023/07/01 00:05:29;;;;;;;11.95;5.85;;;15.90;99.90;;;;;;4999305;28;20051;-73
2023/07/01 00:07:56;;;;;;;10.93;5.80;;;15.80;99.90;;;;;;4999434;28;20048;-73
2023/07/01 00:10:21;;;;;;;15.30;5.82;;;15.70;99.90;;;;;;4933349;28;20056;-73
2023/07/01 00:12:47;;;;;;;12.07;5.25;;;15.70;99.90;;;;;;4998960;28;20054;-73
2023/07/01 00:15:12;;;;;;;11.27;6.05;;;15.70;99.90;;;;;;4933711;28;20094;-73
2023/07/01 00:17:38;;;;;;;14.80;5.72;;;15.60;99.90;;;;;;4933522;28;20078;-73
2023/07/01 00:20:04;;;;;;;11.65;5.70;;;15.60;99.90;;;;;;4999113;28;20122;-72
2023/07/01 00:22:30;;;;;;;11.55;5.90;;;15.60;99.90;;;;;;4999488;28;20108;-73
2023/07/01 00:24:55;;;;;;;12.48;5.90;;;15.60;99.90;;;;;;4934928;28;20429;-73
2023/07/01 00:27:21;;;;;;;11.60;6.03;;;15.60;99.90;;;;;;4936858;28;20039;-73
2023/07/01 00:29:47;;;;;;;15.73;6.13;;;15.50;99.90;;;;;;4936858;28;20558;-73
2023/07/01 00:32:12;;;;;;;10.73;6.22;;;15.50;99.90;;;;;;4936720;28;20039;-73
2023/07/01 00:34:38;;;;;;;13.32;5.63;;;15.50;99.90;;;;;;5002799;28;20055;-73
2023/07/01 00:37:04;;;;;;;9.82;5.85;;;15.50;99.90;;;;;;5002798;28;20044;-73
2023/07/01 00:39:29;;;;;;;13.90;5.93;;;15.50;99.90;;;;;;5003162;28;20055;-73
2023/07/01 00:41:56;;;;;;;10.82;5.82;;;15.40;99.90;;;;;;5002778;28;20087;-73
2023/07/01 00:44:22;;;;;;;10.27;5.95;;;15.40;99.90;;;;;;4936543;28;20055;-73
2023/07/01 00:46:47;;;;;;;8.85;5.35;;;15.30;99.90;;;;;;4936536;28;20048;-73
2023/07/01 00:49:13;;;;;;;12.65;5.43;;;15.40;99.90;;;;;;4936247;28;20043;-73
2023/07/01 00:51:39;;;;;;;13.65;5.43;;;15.40;99.90;;;;;;4959878;28;20138;-73
2023/07/01 00:54:06;;;;;;;8.65;4.65;;;15.40;99.90;;;;;;5042052;28;20070;-73
2023/07/01 00:56:31;;;;;;;11.77;5.20;;;15.40;99.90;;;;;;4975062;28;20077;-73
2023/07/01 00:58:58;;;;;;;10.55;6.18;;;15.30;99.90;;;;;;4974794;28;20066;-73
2023/07/01 01:01:33;;;;;;;13.20;5.45;;;15.30;99.90;;;;;;4974917;28;20039;-73
2023/07/01 01:04:16;;;;;;;9.25;5.18;;;15.20;99.90;;;;;;4974629;28;20050;-73
2023/07/01 01:06:46;;;;;;;12.80;5.50;;;15.20;99.90;;;;;;4974995;28;20058;-73
2023/07/01 01:09:40;;;;;;;10.75;5.18;;;15.30;99.90;;;;;;5041433;28;20063;-73
2023/07/01 01:12:12;;;;;;;12.65;5.97;;;15.20;99.90;;;;;;5034750;28;20387;-73
2023/07/01 01:14:39;;;;;;;10.48;5.30;;;15.20;99.90;;;;;;5041859;28;20090;-73
2023/07/01 01:17:15;;;;;;;10.48;5.40;;;15.30;99.90;;;;;;5041692;28;20055;-73
2023/07/01 01:19:46;;;;;;;11.73;5.47;;;15.30;99.90;;;;;;5041883;28;20478;-73
2023/07/01 01:22:20;;;;;;;10.07;5.65;;;15.30;99.90;;;;;;5041454;28;20109;-73
2023/07/01 01:24:57;;;;;;;9.13;5.57;;;15.30;99.90;;;;;;5041644;28;20502;-73
2023/07/01 01:27:28;;;;;;;10.23;6.05;;;15.30;99.90;;;;;;5041680;28;20047;-73
2023/07/01 01:29:54;;;;;;;11.88;5.82;;;15.30;99.90;;;;;;4974144;28;20042;-73
2023/07/01 01:32:20;;;;;;;10.23;5.25;;;15.30;99.90;;;;;;5041489;28;20112;-73
2023/07/01 01:34:46;;;;;;;8.75;6.03;;;15.30;99.90;;;;;;5041119;28;20417;-73
2023/07/01 01:37:24;;;;;;;10.73;6.07;;;15.30;99.90;;;;;;5041250;28;20425;-73
2023/07/01 01:39:55;;;;;;;11.07;6.00;;;15.30;99.90;;;;;;5041383;28;20093;-73
2023/07/01 01:42:29;;;;;;;10.75;6.22;;;15.30;99.90;;;;;;5041302;28;20055;-73
2023/07/01 01:44:56;;;;;;;10.52;5.45;;;15.30;99.90;;;;;;4974123;28;20051;-73
2023/07/01 01:47:25;;;;;;;13.95;6.95;;;15.30;99.90;;;;;;5041284;28;20521;-72
2023/07/01 01:49:56;;;;;;;10.00;6.45;;;15.30;99.90;;;;;;5041017;28;20050;-73
2023/07/01 01:52:22;;;;;;;13.90;6.78;;;15.30;99.90;;;;;;5040901;28;20051;-73
2023/07/01 01:54:52;;;;;;;10.38;6.70;;;15.30;99.90;;;;;;4974118;28;20055;-73
2023/07/01 01:57:18;;;;;;;14.57;7.97;;;15.20;99.90;;;;;;5040889;28;20122;-73
2023/07/01 01:59:44;;;;;;;13.27;7.55;;;15.20;99.90;;;;;;5040491;28;20043;-73
2023/07/01 02:02:10;;;;;;;15.93;7.20;;;15.20;99.90;;;;;;4973825;28;20092;-72
2023/07/01 02:04:36;;;;;;;12.13;7.78;;;15.20;99.90;;;;;;4973675;28;20097;-73
2023/07/01 02:07:02;;;;;;;11.63;7.30;;;15.20;99.90;;;;;;5040718;28;20050;-73
2023/07/01 02:09:31;;;;;;;10.90;7.57;;;15.20;99.90;;;;;;4973518;28;20078;-73
2023/07/01 02:11:58;;;;;;;10.43;7.30;;;15.20;99.90;;;;;;4973620;28;20058;-73
2023/07/01 02:14:24;;;;;;;12.15;7.60;;;15.20;99.90;;;;;;4973560;28;20079;-73
2023/07/01 02:16:50;;;;;;;13.93;8.10;;;15.30;99.90;;;;;;4973616;28;20089;-73
2023/07/01 02:19:16;;;;;;;10.80;7.53;;;15.20;99.90;;;;;;4973327;28;20100;-72
2023/07/01 02:21:42;;;;;;;10.98;7.68;;;15.20;99.90;;;;;;5040915;28;20058;-73
2023/07/01 02:24:08;;;;;;;11.77;8.52;;;15.20;99.90;;;;;;5040260;28;20046;-72
2023/07/01 02:26:33;;;;;;;8.90;7.40;;;15.20;99.90;;;;;;5040206;28;20452;-73
2023/07/01 02:28:59;;;;;;;11.23;8.10;;;15.20;99.90;;;;;;5040360;28;20047;-73
2023/07/01 02:31:25;;;;;;;9.23;7.40;;;15.20;99.90;;;;;;5040380;28;20047;-73
2023/07/01 02:33:51;;;;;;;12.55;7.88;;;15.20;99.90;;;;;;4973317;28;20047;-73
2023/07/01 02:36:17;;;;;;;9.73;7.28;;;15.20;99.90;;;;;;4973103;28;20509;-73
2023/07/01 02:38:42;;;;;;;10.77;7.18;;;15.20;99.90;;;;;;5040106;28;20082;-72
2023/07/01 02:41:08;;;;;;;12.05;6.93;;;15.10;99.90;;;;;;5040055;28;20046;-73
2023/07/01 02:43:34;;;;;;;9.13;6.95;;;15.20;99.90;;;;;;5039904;28;20043;-73
2023/07/01 02:45:59;;;;;;;12.40;7.28;;;15.20;99.90;;;;;;5039858;28;20047;-74
2023/07/01 02:48:25;;;;;;;12.55;7.53;;;15.20;99.90;;;;;;5038946;28;20130;-73
2023/07/01 02:50:51;;;;;;;12.73;7.90;;;15.10;99.90;;;;;;5039803;28;20055;-73
2023/07/01 02:53:18;;;;;;;12.35;7.38;;;15.30;99.90;;;;;;5039510;28;20058;-73
2023/07/01 02:55:44;;;;;;;9.60;6.82;;;15.20;99.90;;;;;;5039502;28;20134;-73
2023/07/01 02:58:09;;;;;;;11.80;7.47;;;15.20;99.90;;;;;;4972877;28;20491;-73
2023/07/01 03:00:35;;;;;;;10.00;6.93;;;15.40;99.90;;;;;;4972983;28;20058;-73
2023/07/01 03:03:07;;;;;;;8.88;6.85;;;15.30;99.90;;;;;;5039604;28;20109;-73
2023/07/01 03:05:34;;;;;;;13.82;7.03;;;15.30;99.90;;;;;;5039558;28;20051;-73
2023/07/01 03:07:59;;;;;;;8.93;6.50;;;15.40;99.90;;;;;;5039710;28;20126;-74
2023/07/01 03:10:25;;;;;;;9.75;7.20;;;15.40;99.90;;;;;;5039154;28;20162;-73
2023/07/01 03:12:50;;;;;;;10.77;7.40;;;15.40;99.90;;;;;;5039558;28;20082;-73
2023/07/01 03:15:16;;;;;;;12.32;8.32;;;15.40;99.90;;;;;;5039573;28;20477;-73
2023/07/01 03:17:42;;;;;;;10.02;7.85;;;15.30;99.90;;;;;;4972800;28;20127;-74
2023/07/01 03:20:22;;;;;;;11.43;7.55;;;15.40;99.90;;;;;;4972426;28;20039;-73
2023/07/01 03:22:51;;;;;;;9.85;7.65;;;15.50;99.90;;;;;;4972673;28;20101;-73
2023/07/01 03:25:17;;;;;;;10.27;8.38;;;15.40;99.90;;;;;;5039228;28;20065;-73
2023/07/01 03:27:43;;;;;;;11.65;8.50;;;15.40;99.90;;;;;;4972521;28;20050;-73
2023/07/01 03:30:14;;;;;;;12.00;7.85;;;15.40;99.90;;;;;;5039278;28;20573;-73
2023/07/01 03:32:48;;;;;;;10.15;8.07;;;15.40;99.90;;;;;;4972053;28;20047;-73
2023/07/01 03:35:15;;;;;;;9.88;8.25;;;15.30;99.90;;;;;;5038122;28;20046;-73
2023/07/01 03:37:43;;;;;;;11.80;8.50;;;15.30;99.90;;;;;;5039008;28;20051;-73
2023/07/01 03:40:12;;;;;;;10.00;8.35;;;15.40;99.90;;;;;;5038853;28;20043;-72
2023/07/01 03:42:39;;;;;;;12.65;9.18;;;15.30;99.90;;;;;;5038709;28;20046;-73
2023/07/01 03:45:06;;;;;;;10.00;7.97;;;15.30;99.90;;;;;;5038477;28;20490;-73
2023/07/01 03:47:31;;;;;;;11.60;8.13;;;15.30;99.90;;;;;;5038452;28;20049;-73
2023/07/01 03:49:57;;;;;;;10.10;8.55;;;15.40;99.90;;;;;;5038857;28;20043;-72
2023/07/01 03:52:23;;;;;;;10.55;8.32;;;15.30;99.90;;;;;;5038652;28;20051;-73
2023/07/01 03:54:48;;;;;;;11.75;9.25;;;15.40;99.90;;;;;;4971929;28;20047;-74
2023/07/01 03:57:15;;;;;;;10.93;9.02;;;15.40;99.90;;;;;;5038227;28;20047;-73
2023/07/01 03:59:41;;;;;;;12.38;8.77;;;15.40;99.90;;;;;;4971606;28;20181;-73
2023/07/01 04:02:06;;;;;;;13.10;9.98;;;15.30;99.90;;;;;;5038502;28;20510;-73
2023/07/01 04:04:32;;;;;;;12.32;8.57;;;15.30;99.90;;;;;;5038379;28;20049;-73
2023/07/01 04:06:58;;;;;;;11.27;9.25;;;15.40;99.90;;;;;;4972073;28;20134;-73
2023/07/01 04:09:23;;;;;;;12.48;10.00;;;15.40;99.90;;;;;;4971515;28;20059;-73
2023/07/01 04:11:52;;;;;;;14.98;11.15;;;15.30;99.90;;;;;;4971661;28;20051;-73
2023/07/01 04:14:18;;;;;;;11.93;10.43;;;15.30;99.90;;;;;;4971883;28;20054;-72
2023/07/01 04:16:44;;;;;;;12.80;10.82;;;15.50;99.90;;;;;;5038490;28;20054;-73
2023/07/01 04:19:10;;;;;;;13.95;11.45;;;15.30;99.90;;;;;;5038508;28;20065;-73
2023/07/01 04:21:36;;;;;;;13.10;11.45;;;15.30;99.90;;;;;;5038276;28;20047;-73
2023/07/01 04:24:04;;;;;;;17.75;12.15;;;15.40;99.90;;;;;;5038263;28;20039;-73
2023/07/01 04:26:30;;;;;;;13.88;11.95;;;15.50;99.90;;;;;;5038032;28;20054;-73
2023/07/01 04:28:56;;;;;;;14.07;12.57;;;15.40;99.90;;;;;;5038435;28;20050;-73
2023/07/01 04:31:22;;;;;;;16.10;12.48;;;15.50;99.90;;;;;;5038078;28;20042;-74
2023/07/01 04:33:47;;;;;;;13.68;12.07;;;15.50;99.90;;;;;;4971621;28;20047;-74
2023/07/01 04:36:13;;;;;;;16.52;12.55;;;15.30;99.90;;;;;;4971779;28;20130;-74
2023/07/01 04:38:39;;;;;;;15.45;12.38;;;15.50;99.90;;;;;;5038372;28;20078;-74
2023/07/01 04:41:05;;;;;;;15.48;13.18;;;15.40;99.90;;;;;;4971261;28;20486;-73
2023/07/01 04:43:31;;;;;;;16.23;12.32;;;15.50;99.90;;;;;;5038340;28;20057;-73
2023/07/01 04:45:57;;;;;;;15.60;12.18;;;15.40;99.90;;;;;;4971445;28;20065;-73
2023/07/01 04:48:23;;;;;;;13.55;11.68;;;15.50;99.90;;;;;;5038123;28;20397;-74
2023/07/01 04:50:48;;;;;;;13.05;11.25;;;15.50;99.90;;;;;;5038288;28;20138;-73
2023/07/01 04:53:14;;;;;;;13.35;11.23;;;15.50;99.90;;;;;;5037863;28;20398;-74
2023/07/01 04:55:40;;;;;;;11.98;10.75;;;15.40;99.90;;;;;;5037932;28;20180;-74
2023/07/01 04:58:05;;;;;;;13.20;10.40;;;15.60;99.90;;;;;;4971486;28;20047;-74
2023/07/01 05:00:31;;;;;;;11.30;9.90;;;15.50;99.90;;;;;;5037937;28;20053;-74
2023/07/01 05:02:57;;;;;;;12.40;9.63;;;15.60;99.90;;;;;;5037928;28;20050;-74
2023/07/01 05:05:23;;;;;;;11.35;9.60;;;15.50;99.90;;;;;;4971195;28;20053;-74
2023/07/01 05:07:49;;;;;;;11.98;9.57;;;15.60;99.90;;;;;;4971071;28;20126;-74
2023/07/01 05:10:14;;;;;;;13.02;10.15;;;15.50;99.90;;;;;;5038110;28;20050;-74
2023/07/01 05:12:41;;;;;;;11.77;9.57;;;15.60;99.90;;;;;;4974756;28;20043;-74
2023/07/01 05:15:07;;;;;;;12.20;9.82;;;15.50;99.90;;;;;;5041497;28;20043;-73
2023/07/01 05:17:33;;;;;;;10.32;8.90;;;15.70;99.90;;;;;;5041439;28;20047;-74
2023/07/01 05:19:58;;;;;;;10.82;9.05;;;15.50;99.90;;;;;;5041349;28;20035;-74
2023/07/01 05:22:24;;;;;;;12.57;9.82;;;15.50;99.90;;;;;;4974595;28;20043;-74
2023/07/01 05:24:50;;;;;;;12.52;9.05;;;15.50;99.90;;;;;;4974110;28;20202;-74
2023/07/01 05:27:15;;;;;;;11.80;8.85;;;15.60;99.90;;;;;;5041516;28;20535;-74
2023/07/01 05:29:41;;;;;;;11.45;8.65;;;15.60;99.90;;;;;;5041231;28;20054;-74
2023/07/01 05:32:07;;;;;;;11.18;9.98;;;15.70;99.90;;;;;;5041213;28;20055;-74
2023/07/01 05:34:33;;;;;;;11.02;8.77;;;15.60;99.90;;;;;;5040993;28;20066;-74
2023/07/01 05:36:59;;;;;;;10.93;7.82;;;15.80;99.90;;;;;;5041195;28;20475;-73
2023/07/01 05:39:24;;;;;;;11.88;7.65;;;15.70;99.90;;;;;;4973920;28;20107;-74
2023/07/01 05:41:50;;;;;;;12.38;8.45;;;16.00;99.90;;;;;;4974207;28;20035;-75
2023/07/01 05:44:16;;;;;;;11.07;7.95;;;15.80;99.90;;;;;;5041202;28;20136;-74
2023/07/01 05:46:44;;;;;;;9.82;7.70;;;16.00;99.90;;;;;;5040995;28;20200;-77
2023/07/01 05:49:10;;;;;;;8.52;6.70;;;16.00;99.90;;;;;;5041034;28;20134;-75
2023/07/01 05:51:37;;;;;;;7.53;6.28;;;15.80;99.90;;;;;;5040855;28;20138;-75
2023/07/01 05:54:05;;;;;;;8.85;6.45;;;16.10;99.90;;;;;;5040942;28;20093;-76
2023/07/01 05:56:31;;;;;;;7.93;5.45;;;16.10;99.90;;;;;;5040823;28;20120;-75
2023/07/01 05:58:56;;;;;;;6.50;4.70;;;16.00;99.90;;;;;;5040862;28;20082;-75
2023/07/01 06:01:22;;;;;;;7.47;4.55;;;16.10;99.90;;;;;;4974018;28;20129;-75
2023/07/01 06:03:48;;;;;;;7.20;4.90;;;16.20;99.90;;;;;;5040475;28;20043;-75
2023/07/01 06:06:13;;;;;;;7.57;5.55;;;16.20;99.90;;;;;;5040422;28;20509;-76
2023/07/01 06:08:40;;;;;;;9.00;5.20;;;16.20;99.90;;;;;;5040202;28;20058;-75
2023/07/01 06:11:07;;;;;;;7.15;4.88;;;16.40;99.90;;;;;;5040094;28;20104;-75
2023/07/01 06:13:32;;;;;;;6.55;3.60;;;16.30;99.90;;;;;;4973689;28;20050;-76
2023/07/01 06:15:58;;;;;;;6.45;3.92;;;16.30;99.90;;;;;;4973370;28;20051;-76
2023/07/01 06:18:24;;;;;;;7.28;3.95;;;16.40;99.90;;;;;;5040412;28;20528;-76
2023/07/01 06:20:49;;;;;;;6.28;3.83;;;16.50;99.90;;;;;;4973340;28;20051;-76
2023/07/01 06:23:17;;;;;;;5.20;2.88;;;16.30;99.90;;;;;;5039054;28;20047;-76
2023/07/01 06:25:42;;;;;;;5.32;3.35;;;16.50;99.90;;;;;;5040121;28;20153;-76
2023/07/01 06:28:08;;;;;;;6.50;3.22;;;16.50;99.90;;;;;;5040171;28;20156;-75
2023/07/01 06:30:33;;;;;;;4.18;2.50;;;16.40;99.90;;;;;;4973501;28;20050;-76
2023/07/01 06:32:59;;;;;;;4.07;2.30;;;16.60;99.90;;;;;;5039885;28;20047;-76
2023/07/01 06:35:25;;;;;;;4.38;2.33;;;16.40;99.90;;;;;;4973117;28;20131;-75
2023/07/01 06:37:50;;;;;;;4.30;2.35;;;16.50;99.90;;;;;;5040052;28;20039;-74
2023/07/01 06:40:16;;;;;;;4.60;2.20;;;16.60;99.90;;;;;;5039790;28;20407;-75
2023/07/01 06:42:42;;;;;;;4.47;2.35;;;16.50;99.90;;;;;;5039940;28;20062;-75
2023/07/01 06:45:08;;;;;;;4.25;2.20;;;16.50;99.90;;;;;;4973109;28;20047;-78
2023/07/01 06:47:33;;;;;;;4.78;2.42;;;16.50;99.90;;;;;;5015500;28;20464;-74
2023/07/01 06:49:59;;;;;;;4.90;2.33;;;16.70;99.90;;;;;;5000177;28;20047;-76
2023/07/01 06:52:25;;;;;;;4.15;2.15;;;16.80;99.90;;;;;;4934137;29;20372;-76
2023/07/01 06:54:50;;;;;;;4.50;2.17;;;16.70;99.90;;;;;;4934488;29;20087;-76
2023/07/01 06:57:16;;;;;;;3.30;1.75;;;16.80;99.90;;;;;;4934338;29;20052;-76
2023/07/01 06:59:41;;;;;;;3.28;2.45;;;16.90;99.90;;;;;;5000108;28;20055;-75
2023/07/01 07:02:07;;;;;;;3.17;1.50;;;16.70;99.90;;;;;;4999717;28;20504;-74
2023/07/01 07:04:33;;;;;;;2.78;1.38;;;16.90;99.90;;;;;;4999929;28;20040;-76
2023/07/01 07:06:58;;;;;;;2.47;1.60;;;16.90;99.90;;;;;;4999852;28;20061;-74
2023/07/01 07:09:24;;;;;;;3.50;1.38;;;16.90;99.90;;;;;;4999590;28;20416;-75
2023/07/01 07:11:54;;;;;;;4.28;1.50;;;16.80;99.90;;;;;;4999663;28;20056;-75
2023/07/01 07:14:21;;;;;;;2.72;1.40;;;16.70;99.90;;;;;;4999638;28;20056;-74
2023/07/01 07:16:47;;;;;;;2.35;1.23;;;16.90;99.90;;;;;;4933992;28;20047;-75
2023/07/01 07:19:13;;;;;;;3.92;1.25;;;17.00;99.90;;;;;;4999513;28;20098;-74
2023/07/01 07:21:40;;;;;;;2.03;0.70;;;16.80;99.90;;;;;;4999311;28;20051;-76
2023/07/01 07:24:05;;;;;;;1.58;0.80;;;17.00;99.90;;;;;;4999264;28;20403;-74
2023/07/01 07:26:33;;;;;;;2.13;0.75;;;17.00;99.90;;;;;;4999533;28;20546;-74
2023/07/01 07:28:58;;;;;;;2.13;0.75;;;17.10;99.90;;;;;;4999748;28;20395;-75
2023/07/01 07:31:24;;;;;;;1.00;0.60;;;17.10;99.90;;;;;;4999501;28;20551;-74
2023/07/01 07:33:50;;;;;;;1.10;0.60;;;17.10;99.90;;;;;;4933083;29;20056;-74
2023/07/01 07:36:15;;;;;;;1.77;0.80;;;17.00;99.90;;;;;;4999280;28;20070;-74
2023/07/01 07:38:41;;;;;;;2.13;1.15;;;16.90;99.90;;;;;;4999089;28;20040;-75
2023/07/01 07:41:07;;;;;;;2.72;1.20;;;17.10;99.90;;;;;;4999239;28;20134;-76
2023/07/01 07:43:32;;;;;;;3.45;1.17;;;17.00;99.90;;;;;;4999457;28;20087;-75
2023/07/01 07:45:58;;;;;;;2.63;0.90;;;17.10;99.90;;;;;;4998968;28;20055;-75
2023/07/01 07:48:23;;;;;;;1.83;0.90;;;17.20;99.90;;;;;;4998921;28;20090;-75
2023/07/01 07:50:49;;;;;;;1.35;0.65;;;17.10;99.90;;;;;;4933926;28;20487;-76
2023/07/01 07:53:15;;;;;;;2.20;0.70;;;17.20;99.90;;;;;;4933672;29;20161;-74
2023/07/01 07:55:42;;;;;;;2.03;0.75;;;17.20;99.90;;;;;;4998889;28;20048;-76
2023/07/01 07:58:09;;;;;;;1.60;0.65;;;17.20;99.90;;;;;;4933653;28;20063;-75
2023/07/01 08:00:35;;;;;;;3.25;1.00;;;17.30;99.90;;;;;;4999219;28;20055;-75
2023/07/01 08:03:00;;;;;;;2.35;1.25;;;17.30;99.90;;;;;;4998789;28;20047;-74
2023/07/01 08:05:27;;;;;;;2.53;1.30;;;17.40;99.90;;;;;;4999004;28;20062;-75
2023/07/01 08:07:53;;;;;;;2.50;1.33;;;17.10;99.90;;;;;;4998821;28;20052;-75
2023/07/01 08:10:19;;;;;;;3.10;1.80;;;17.40;99.90;;;;;;4998865;28;20067;-76
2023/07/01 08:12:45;;;;;;;4.40;1.50;;;17.40;99.90;;;;;;4999165;28;20087;-76
2023/07/01 08:15:11;;;;;;;3.28;1.80;;;17.20;99.90;;;;;;4998860;28;20047;-76
2023/07/01 08:17:38;;;;;;;2.58;1.40;;;17.30;99.90;;;;;;4999031;28;20036;-76
2023/07/01 08:20:04;;;;;;;2.25;1.60;;;17.20;99.90;;;;;;4998732;28;20059;-76
2023/07/01 08:22:30;;;;;;;3.25;1.80;;;17.30;99.90;;;;;;4998674;28;20090;-76
2023/07/01 08:24:57;;;;;;;4.90;2.15;;;17.50;99.90;;;;;;4998369;28;20044;-76
2023/07/01 08:27:23;;;;;;;5.38;1.90;;;17.30;99.90;;;;;;4998808;28;20047;-76
2023/07/01 08:29:48;;;;;;;3.90;2.10;;;17.60;99.90;;;;;;4932970;29;20079;-76
2023/07/01 08:32:14;;;;;;;3.53;2.20;;;17.70;99.90;;;;;;4998459;28;20052;-76
2023/07/01 08:34:40;;;;;;;4.25;2.05;;;17.40;99.90;;;;;;4998418;28;20502;-77
2023/07/01 08:37:06;;;;;;;3.97;1.88;;;17.70;99.90;;;;;;4998691;28;20055;-77
2023/07/01 08:39:31;;;;;;;4.47;2.00;;;17.60;99.90;;;;;;4998437;28;20411;-76
2023/07/01 08:42:02;;;;;;;3.10;2.00;;;17.50;99.90;;;;;;4933001;28;20083;-76
2023/07/01 08:44:29;;;;;;;5.25;2.50;;;17.60;99.90;;;;;;4998635;28;20054;-76
2023/07/01 08:46:55;;;;;;;6.43;2.58;;;17.80;99.90;;;;;;5001633;28;20449;-76
2023/07/01 08:49:24;;;;;;;3.53;2.60;;;17.90;99.90;;;;;;5002355;28;20407;-75
2023/07/01 08:52:05;;;;;;;4.57;2.72;;;17.80;99.90;;;;;;5001995;28;20047;-75
2023/07/01 08:54:34;;;;;;;3.80;2.83;;;17.80;99.90;;;;;;4936187;28;20048;-76
2023/07/01 08:57:00;;;;;;;4.55;3.25;;;17.90;99.90;;;;;;5002428;28;20125;-75
2023/07/01 08:59:26;;;;;;;6.95;3.58;;;17.80;99.90;;;;;;4935846;28;20117;-76
2023/07/01 09:01:53;;;;;;;8.10;4.07;;;18.00;99.90;;;;;;4936066;29;20058;-75
2023/07/01 09:04:19;;;;;;;6.03;4.30;;;18.00;99.90;;;;;;5002314;28;20048;-75
2023/07/01 09:06:45;;;;;;;5.88;3.83;;;17.70;99.90;;;;;;5002034;28;20055;-75
2023/07/01 09:09:11;;;;;;;6.72;4.47;;;17.90;99.90;;;;;;5001611;28;20052;-76
2023/07/01 09:11:40;;;;;;;7.55;4.30;;;17.80;99.90;;;;;;4935747;28;20591;-76
2023/07/01 09:14:06;;;;;;;7.35;4.43;;;17.80;99.90;;;;;;5001735;28;20113;-76
2023/07/01 09:16:36;;;;;;;7.03;4.80;;;17.90;99.90;;;;;;5002153;28;20047;-76
2023/07/01 09:19:06;;;;;;;7.80;5.70;;;17.80;99.90;;;;;;4944840;28;20054;-75
2023/07/01 09:21:32;;;;;;;7.10;5.72;;;17.90;99.90;;;;;;5011260;28;20044;-75
2023/07/01 09:23:59;;;;;;;9.45;5.75;;;17.90;99.90;;;;;;5011881;28;20044;-75
2023/07/01 09:26:28;;;;;;;10.25;6.72;;;17.90;99.90;;;;;;4944109;28;20068;-76
2023/07/01 09:28:54;;;;;;;12.20;6.97;;;17.80;99.90;;;;;;5010623;28;20039;-76
2023/07/01 09:31:19;;;;;;;12.48;8.25;;;18.00;99.90;;;;;;5011907;28;20039;-76
2023/07/01 09:33:56;;;;;;;12.35;7.85;;;18.00;99.90;;;;;;4943278;28;20039;-74
2023/07/01 09:36:26;;;;;;;10.75;7.80;;;18.20;99.90;;;;;;5040941;28;20066;-75
2023/07/01 09:38:53;;;;;;;13.18;8.52;;;18.20;99.90;;;;;;5040720;28;20046;-74
2023/07/01 09:41:23;;;;;;;16.42;7.88;;;18.20;99.90;;;;;;4974153;28;20096;-74
2023/07/01 09:43:49;;;;;;;13.77;8.75;;;18.30;99.90;;;;;;4973978;28;20043;-74
2023/07/01 09:46:15;;;;;;;13.45;8.85;;;18.10;99.90;;;;;;5040645;28;20137;-75
2023/07/01 09:48:53;;;;;;;13.10;8.75;;;18.20;99.90;;;;;;5040955;28;20137;-74
2023/07/01 09:51:19;;;;;;;15.82;9.27;;;18.10;99.90;;;;;;5040674;28;20433;-72
2023/07/01 09:53:45;;;;;;;15.23;9.20;;;18.20;99.90;;;;;;5040519;28;20054;-75
2023/07/01 09:56:14;;;;;;;13.13;9.68;;;18.30;99.90;;;;;;5040368;28;20491;-81
2023/07/01 09:58:40;;;;;;;11.93;8.65;;;18.30;99.90;;;;;;5040216;28;20486;-77
2023/07/01 10:01:05;;;;;;;11.48;8.90;;;18.30;99.90;;;;;;5040551;28;20509;-74
2023/07/01 10:03:32;;;;;;;12.40;8.05;;;18.20;99.90;;;;;;5040710;28;20062;-74
2023/07/01 10:05:58;;;;;;;11.10;7.80;;;18.10;99.90;;;;;;5039973;28;20134;-75
2023/07/01 10:08:23;;;;;;;12.77;8.10;;;18.20;99.90;;;;;;5040519;28;20138;-78
2023/07/01 10:11:07;;;;;;;10.35;7.68;;;18.30;99.90;;;;;;5040059;28;20414;-73
2023/07/01 10:13:47;;;;;;;13.88;7.88;;;18.30;99.90;;;;;;5040184;28;20059;-74
2023/07/01 10:16:13;;;;;;;11.45;7.40;;;18.40;99.90;;;;;;5040125;28;20050;-74
2023/07/01 10:18:38;;;;;;;14.40;8.38;;;18.30;99.90;;;;;;5040152;28;20137;-76
2023/07/01 10:21:23;;;;;;;15.40;8.07;;;18.40;99.90;;;;;;5039910;28;20057;-73
2023/07/01 10:23:50;;;;;;;12.15;8.50;;;18.50;99.90;;;;;;5040161;28;20053;-74
2023/07/01 10:26:43;;;;;;;11.63;8.13;;;18.60;99.90;;;;;;5039753;28;20482;-76
2023/07/01 10:29:28;;;;;;;14.55;8.80;;;18.80;99.90;;;;;;4973296;28;20062;-72
2023/07/01 10:32:09;;;;;;;9.77;7.60;;;18.70;99.90;;;;;;5039790;28;20054;-74
2023/07/01 10:34:53;;;;;;;9.55;6.40;;;18.60;99.90;;;;;;5039681;28;20126;-74
2023/07/01 10:37:23;;;;;;;12.50;6.78;;;18.70;99.90;;;;;;5039611;28;20054;-75
2023/07/01 10:39:49;;;;;;;10.80;7.38;;;18.80;99.90;;;;;;5039786;28;20062;-80
2023/07/01 10:42:32;;;;;;;12.68;7.82;;;18.80;99.90;;;;;;5039565;28;20050;-73
2023/07/01 10:45:13;;;;;;;9.02;6.65;;;18.90;99.90;;;;;;4972980;28;20126;-76
2023/07/01 10:47:45;;;;;;;8.30;6.57;;;18.90;99.90;;;;;;5039738;28;20051;-74
2023/07/01 10:50:12;;;;;;;8.57;6.63;;;18.80;99.90;;;;;;5024263;28;20475;-72
2023/07/01 10:53:01;;;;;;;9.88;6.03;;;18.70;99.90;;;;;;5019799;28;20499;-74
2023/07/01 10:55:49;;;;;;;10.07;6.68;;;18.60;99.90;;;;;;5019971;28;20058;-75
2023/07/01 10:58:22;;;;;;;10.30;7.03;;;18.70;99.90;;;;;;4953306;29;20039;-78
2023/07/01 11:00:52;;;;;;;13.25;7.40;;;18.60;99.90;;;;;;5019541;28;20051;-73
2023/07/01 11:03:33;;;;;;;10.90;7.63;;;18.70;99.90;;;;;;5019440;28;20487;-73
2023/07/01 11:06:00;;;;;;;10.32;7.75;;;18.80;99.90;;;;;;5019369;28;20051;-74
2023/07/01 11:08:30;;;;;;;10.60;7.45;;;18.90;99.90;;;;;;5018635;28;20515;-74
2023/07/01 11:10:56;;;;;;;8.15;6.88;;;18.80;99.90;;;;;;4953070;29;20063;-74
2023/07/01 11:13:23;;;;;;;8.55;7.10;;;18.70;99.90;;;;;;5019114;28;20047;-73
2023/07/01 11:16:01;;;;;;;7.80;5.88;;;18.70;99.90;;;;;;4953025;29;20050;-76
2023/07/01 11:18:40;;;;;;;9.60;5.72;;;18.80;99.90;;;;;;4953151;29;20086;-74
2023/07/01 11:21:08;;;;;;;7.65;5.47;;;18.90;99.90;;;;;;5018956;28;20549;-75
2023/07/01 11:23:34;;;;;;;9.70;6.25;;;19.00;99.90;;;;;;5019248;28;20054;-74
2023/07/01 11:25:59;;;;;;;9.93;6.38;;;19.20;99.90;;;;;;5018906;28;20055;-74
2023/07/01 11:28:36;;;;;;;6.88;5.40;;;19.30;99.90;;;;;;5019042;28;20134;-75
2023/07/01 11:31:32;;;;;;;6.28;4.82;;;19.30;99.90;;;;;;5019038;28;20574;-75
2023/07/01 11:33:58;;;;;;;8.65;5.38;;;19.20;99.90;;;;;;5018106;28;20062;-75
2023/07/01 11:36:37;;;;;;;8.32;5.13;;;19.10;99.90;;;;;;5018818;28;20039;-75
2023/07/01 11:39:10;;;;;;;9.52;4.97;;;19.00;99.90;;;;;;5018683;28;20083;-76
2023/07/01 11:41:38;;;;;;;10.05;4.40;;;19.00;99.90;;;;;;5018684;28;20058;-75
2023/07/01 11:44:07;;;;;;;6.18;3.75;;;18.80;99.90;;;;;;4952609;29;20093;-75
2023/07/01 11:46:35;;;;;;;5.35;4.00;;;18.70;99.90;;;;;;4952865;29;20089;-75
2023/07/01 11:49:18;;;;;;;7.57;3.78;;;18.70;99.90;;;;;;4952765;29;20053;-75
2023/07/01 11:51:47;;;;;;;5.53;3.80;;;18.70;99.90;;;;;;4952613;29;20430;-75
2023/07/01 11:54:14;;;;;;;5.70;3.72;;;18.70;99.90;;;;;;5018454;28;20055;-75
2023/07/01 11:56:39;;;;;;;7.38;4.00;;;18.80;99.90;;;;;;5019060;28;20094;-75
2023/07/01 11:59:05;;;;;;;8.60;4.38;;;19.10;99.90;;;;;;5018502;28;20083;-74
2023/07/01 12:01:31;;;;;;;6.38;3.35;;;19.20;99.90;;;;;;5018581;28;20608;-75
2023/07/01 12:03:57;;;;;;;8.07;4.03;;;19.10;99.90;;;;;;5018573;28;20051;-75
2023/07/01 12:06:25;;;;;;;5.47;3.95;;;19.20;99.90;;;;;;5018669;28;20056;-74
2023/07/01 12:08:55;;;;;;;8.52;4.03;;;19.30;99.90;;;;;;5018115;28;20509;-74
2023/07/01 12:11:24;;;;;;;8.20;4.50;;;19.50;99.90;;;;;;5018722;28;20065;-74
2023/07/01 12:13:51;;;;;;;6.35;4.35;;;19.70;99.90;;;;;;5018187;28;20043;-73
2023/07/01 12:16:17;;;;;;;7.70;4.68;;;19.80;99.90;;;;;;4952395;29;20047;-74
2023/07/01 12:18:43;;;;;;;5.25;3.85;;;19.70;99.90;;;;;;5018319;28;20134;-73
2023/07/01 12:21:09;;;;;;;6.75;4.25;;;19.60;99.90;;;;;;4955484;29;20130;-74
2023/07/01 12:23:44;;;;;;;8.43;4.10;;;19.50;99.90;;;;;;4955579;29;20053;-74
2023/07/01 12:26:13;;;;;;;5.22;3.03;;;19.30;99.90;;;;;;4955745;29;20085;-73
2023/07/01 12:28:39;;;;;;;6.82;3.50;;;19.30;99.90;;;;;;4955510;29;20556;-74
2023/07/01 12:31:06;;;;;;;5.55;2.85;;;19.30;99.90;;;;;;5022242;28;20089;-74
2023/07/01 12:33:35;;;;;;;6.70;3.00;;;19.30;99.90;;;;;;5022206;28;20048;-74
2023/07/01 12:36:01;;;;;;;4.82;2.80;;;19.30;99.90;;;;;;4955620;29;20035;-74
2023/07/01 12:38:28;;;;;;;6.63;2.72;;;19.30;99.90;;;;;;5022547;28;20055;-75
2023/07/01 12:40:54;;;;;;;8.07;3.08;;;19.40;99.90;;;;;;5021891;28;20050;-74
2023/07/01 12:43:22;;;;;;;5.47;2.67;;;19.40;99.90;;;;;;5021908;28;20047;-75